Scroll down
FLIGHT INFORMATION
Federal Express (FedEx)

FDX17

At Arrival Gate

KSEA
 PANC
DATE: 2021-03-08
GATE: 
GATE DEPARTURE: 03:02
TAKEOFF: 03:09
DATE: 2021-03-08
GATE:  -
LANDING: 06:03
GATE ARRIVAL: 06:09
FLIGHT DATA
Crew: 
Speed: 
491 kts
Altitude: 
38,008 ft
Stage Length: 
1,255.7 nm
Block Time: 
3.1 hrs
Flight Time: 
2.9 hrs
Fuel Used: 
43,845 lb
Cleared Route: KSEA PANGL YZT YZP FRIED EEDEN SNOUT MDO PANC
TRACK DATA
50,000 ft 1,000 kts
AIRCRAFT INFO AND CUMULATIVE STATS
Aircraft Type: 
B77LF
Registration: 
SELCAL: 
FLBC
MSN/LN: 
41749 / 1152
Total Flights: 
7
Total Block Time: 
45.2 hrs
Total Flight Time: 
43.4 hrs
Total Fuel Used: 
703,208 lb
DATALINK LOG | Newest first | Current as of: 2022-11-30 10:02:07
LABEL SEQUENCE CONTENT Dn/Up
QD052906:09 19.4▼ Dn
QC592306:03▼ Dn
2U3400PANC 081953Z 00000KT 10SM FEW200 M09/M12 A3020 RMK AO2 SLP229 T10891117▲ Up
2S3400PANC▼ Dn
QB415703:09▼ Dn
QA345003:02 63.2▼ Dn
A31828CLEARED TO PANC VIA BANGR9 pangl yzt j523 yzp fried j804r mdo witti4. SQUAWK 7022.▲ Up
2U1719PANC 081253Z 35003KT 10SM CLR M11/M14 A3025 RMK AO2 SLP246 T11111144▲ Up
2U1718PAFA 081253Z 04004KT 9SM -SN OVC022 M07/M11 A3020 RMK AO2 SLP240 P0000 T10721111▲ Up
2U1718KSEA 081253Z 02005KT 10SM FEW002 00/M01 A3004 RMK AO2 SLP182 T00001006▲ Up
2S1717KSEA PANC PAFA▼ Dn
Q01617[LINK ACK]▲ Up
Q01616[LINK TEST]▼ Dn


AIRCRAFT HISTORY
FLIGHT DATE FLIGHT NO. ORIGIN DESTINATION CLEARED ROUTE BLOCK TIME FLIGHT TIME FUEL USED PILOT
2022-10-18FDX5193KMEM RJBB KMEM FOXOM EOS SLN HCT SNY RIW DNW LKT MWH YVR UQQ KATCH HMPTN GRIZZ CJAYY 58N60 PUGGY HODDY OFORD OBOYD ONEIL OPAKE OLCOT OPHET OGDEN OMOTO OPULO ONEMU OATIS MAMID DAIGO JD AKAGI GYODA TEPEX OSPAN PIGAP TENRU SUGAL NAKTU KOHWA SHIMA AYANO RAYJO KEC KISEI EVERT CANDY RJBB14.7 hrs14.5 hrs214,179 lbAllan Burek
2022-05-21FDX853KDEN KMEM KDEN DUUZE RASCL RZC KMEM2 hrs1.7 hrs22,065 lbAllan Burek
2022-05-14FDX820KBUR KDEN KBUR RAYVE SLAPP YAAPY JETHK BBITE ANTLP NNAVY BLAZN LAS BEALE NOOTN BETHL FREDD DICEE BUMMP SNOEE BOWLL ABASN KTOOO SSKII BGDEE TLRID ZATUT LOOOP HUDPI QWIKE JOSEE RW17R2.1 hrs1.8 hrs26,961 lbPete L.
2022-05-12FDX751KMEM KBUR KMEM PEPOC CHLDR ANSWA LIT MEEOW GLOVE DECOD BYP MQP ABI CME HONDS CNX ONM SJN CHEAR PAYSO NABOB DRK CHILY EED COOOP TAAAP JOEES DNUTT JOHHN BASAL DYVER CHKNZ KOPLE PMD JANNY PUCCK ELMRR WABBT RW083.9 hrs3.6 hrs60,030 lbPete L.
2021-11-23FDX9072RJAA KMEM RJAA ARIES A4L11 A4L12 A4L13 A4L14 ROONY CHUMS CUPID GULBO KALNA 43E60 45E70 46E80 47N70 48N60 48N50 48N40 ROUKE SEA STEVS ZAXUL LEZLE BAXGO GANNE MBW MOCTU LEWOY CUGGA PENUT KIRKE RASCL ICT BURDN CHELI COODY RZC MARBI IGLOO SAUCC BRBBQ FNCHR RDEEE JESTI BEERT LOONR BOWEN JIMGA JAYWA HADAN RW36R11.8 hrs11.4 hrs214,747 lbDan Downs
2021-11-22FDX15PANC RJAA PANC NODLE NICHO NOSHO NEONN NANZA NOLTI NAYLD NULUK NANDY NATES NIKLL NYMPH NUZAN NRKEY NIPPI NOGAL NUBDA NANNO NODAN NANAC ESNIP LOSVA AKRIT OLDIV LESPO SUPOK PLOKY UNARI CORGI ELGAR RW34L7.7 hrs7.4 hrs121,382 lbDan Downs
2021-03-08FDX17KSEA PANC KSEA PANGL YZT YZP FRIED EEDEN SNOUT MDO PANC3.1 hrs2.9 hrs43,845 lbAllan Burek